sensor_id;sensor_type;location;lat;lon;timestamp;P1;durP1;ratioP1;P2;durP2;ratioP2
56593;SDS011;42474;51.660;5.824;2022-08-11T00:02:51;4.5;;;2.8;;
56593;SDS011;42474;51.660;5.824;2022-08-11T00:07:52;8.2;;;2.6;;
56593;SDS011;42474;51.660;5.824;2022-08-11T00:12:54;4.4;;;2.8;;
56593;SDS011;42474;51.660;5.824;2022-08-11T00:17:51;4.9;;;2.8;;
56593;SDS011;42474;51.660;5.824;2022-08-11T00:22:51;5.5;;;3.0;;
56593;SDS011;42474;51.660;5.824;2022-08-11T00:27:51;4.7;;;2.7;;
56593;SDS011;42474;51.660;5.824;2022-08-11T00:32:52;8.2;;;3.5;;
56593;SDS011;42474;51.660;5.824;2022-08-11T00:37:53;3.5;;;2.8;;
56593;SDS011;42474;51.660;5.824;2022-08-11T00:43:50;4.8;;;2.8;;
56593;SDS011;42474;51.660;5.824;2022-08-11T00:49:29;3.9;;;3.4;;
56593;SDS011;42474;51.660;5.824;2022-08-11T00:57:19;4.0;;;3.0;;
56593;SDS011;42474;51.660;5.824;2022-08-11T01:04:19;5.2;;;3.3;;
56593;SDS011;42474;51.660;5.824;2022-08-11T01:12:30;5.3;;;3.0;;
56593;SDS011;42474;51.660;5.824;2022-08-11T01:24:50;5.4;;;2.7;;
56593;SDS011;42474;51.660;5.824;2022-08-11T01:36:54;6.8;;;3.0;;
56593;SDS011;42474;51.660;5.824;2022-08-11T01:45:55;6.5;;;3.1;;
56593;SDS011;42474;51.660;5.824;2022-08-11T01:51:04;4.4;;;2.9;;
56593;SDS011;42474;51.660;5.824;2022-08-11T01:56:11;5.5;;;2.8;;
56593;SDS011;42474;51.660;5.824;2022-08-11T02:00:46;5.9;;;3.0;;
56593;SDS011;42474;51.660;5.824;2022-08-11T02:06:31;4.5;;;2.8;;
56593;SDS011;42474;51.660;5.824;2022-08-11T02:11:35;4.5;;;2.9;;
56593;SDS011;42474;51.660;5.824;2022-08-11T02:16:14;6.5;;;2.8;;
56593;SDS011;42474;51.660;5.824;2022-08-11T02:20:56;5.7;;;2.8;;
56593;SDS011;42474;51.660;5.824;2022-08-11T02:25:16;5.7;;;2.9;;
56593;SDS011;42474;51.660;5.824;2022-08-11T02:29:24;3.6;;;2.8;;
56593;SDS011;42474;51.660;5.824;2022-08-11T02:33:38;6.1;;;3.4;;
56593;SDS011;42474;51.660;5.824;2022-08-11T02:38:31;4.6;;;3.2;;
56593;SDS011;42474;51.660;5.824;2022-08-11T02:43:07;3.9;;;3.1;;
56593;SDS011;42474;51.660;5.824;2022-08-11T02:49:09;5.0;;;3.5;;
56593;SDS011;42474;51.660;5.824;2022-08-11T02:54:07;5.1;;;3.2;;
56593;SDS011;42474;51.660;5.824;2022-08-11T02:58:45;7.1;;;3.7;;
56593;SDS011;42474;51.660;5.824;2022-08-11T03:02:30;4.5;;;3.3;;
56593;SDS011;42474;51.660;5.824;2022-08-11T03:07:39;4.1;;;3.2;;
56593;SDS011;42474;51.660;5.824;2022-08-11T03:12:09;5.5;;;3.4;;
56593;SDS011;42474;51.660;5.824;2022-08-11T03:16:49;4.5;;;3.7;;
56593;SDS011;42474;51.660;5.824;2022-08-11T03:21:31;3.9;;;3.1;;
56593;SDS011;42474;51.660;5.824;2022-08-11T03:26:04;4.0;;;3.3;;
56593;SDS011;42474;51.660;5.824;2022-08-11T03:30:42;4.3;;;3.3;;
56593;SDS011;42474;51.660;5.824;2022-08-11T03:34:25;4.0;;;3.0;;
56593;SDS011;42474;51.660;5.824;2022-08-11T03:35:53;4.3;;;3.3;;
56593;SDS011;42474;51.660;5.824;2022-08-11T03:40:58;4.0;;;3.0;;
56593;SDS011;42474;51.660;5.824;2022-08-11T03:46:37;4.6;;;3.7;;
56593;SDS011;42474;51.660;5.824;2022-08-11T03:51:52;8.0;;;4.0;;
56593;SDS011;42474;51.660;5.824;2022-08-11T03:57:58;6.2;;;3.7;;
56593;SDS011;42474;51.660;5.824;2022-08-11T04:09:50;7.1;;;4.1;;
56593;SDS011;42474;51.660;5.824;2022-08-11T04:18:28;8.1;;;4.2;;
56593;SDS011;42474;51.660;5.824;2022-08-11T04:27:23;5.8;;;4.2;;
56593;SDS011;42474;51.660;5.824;2022-08-11T04:33:35;6.3;;;4.2;;
56593;SDS011;42474;51.660;5.824;2022-08-11T04:40:48;7.6;;;4.1;;
56593;SDS011;42474;51.660;5.824;2022-08-11T04:49:54;8.6;;;4.7;;
56593;SDS011;42474;51.660;5.824;2022-08-11T04:56:37;8.3;;;4.6;;
56593;SDS011;42474;51.660;5.824;2022-08-11T05:01:22;5.9;;;4.0;;
56593;SDS011;42474;51.660;5.824;2022-08-11T05:10:07;6.0;;;4.5;;
56593;SDS011;42474;51.660;5.824;2022-08-11T05:14:49;7.6;;;4.7;;
56593;SDS011;42474;51.660;5.824;2022-08-11T05:17:53;7.3;;;4.4;;
56593;SDS011;42474;51.660;5.824;2022-08-11T05:19:20;5.8;;;4.6;;
56593;SDS011;42474;51.660;5.824;2022-08-11T05:19:29;8.2;;;4.8;;
56593;SDS011;42474;51.660;5.824;2022-08-11T05:19:50;6.9;;;4.8;;
56593;SDS011;42474;51.660;5.824;2022-08-11T05:20:10;7.8;;;4.7;;
56593;SDS011;42474;51.660;5.824;2022-08-11T05:21:07;10.2;;;4.9;;
56593;SDS011;42474;51.660;5.824;2022-08-11T05:22:35;13.4;;;4.9;;
56593;SDS011;42474;51.660;5.824;2022-08-11T05:24:59;8.2;;;4.5;;
56593;SDS011;42474;51.660;5.824;2022-08-11T05:27:13;7.8;;;4.8;;
56593;SDS011;42474;51.660;5.824;2022-08-11T05:30:14;7.8;;;4.9;;
56593;SDS011;42474;51.660;5.824;2022-08-11T05:32:03;6.1;;;4.6;;
56593;SDS011;42474;51.660;5.824;2022-08-11T05:34:53;9.6;;;4.9;;
56593;SDS011;42474;51.660;5.824;2022-08-11T05:37:42;9.9;;;4.9;;
56593;SDS011;42474;51.660;5.824;2022-08-11T05:39:20;5.5;;;4.9;;
56593;SDS011;42474;51.660;5.824;2022-08-11T05:42:56;6.7;;;4.8;;
56593;SDS011;42474;51.660;5.824;2022-08-11T05:47:51;9.0;;;5.0;;
56593;SDS011;42474;51.660;5.824;2022-08-11T05:52:51;7.3;;;5.2;;
56593;SDS011;42474;51.660;5.824;2022-08-11T05:57:54;9.8;;;5.7;;
56593;SDS011;42474;51.660;5.824;2022-08-11T06:02:53;8.6;;;5.1;;
56593;SDS011;42474;51.660;5.824;2022-08-11T06:07:51;7.4;;;4.8;;
56593;SDS011;42474;51.660;5.824;2022-08-11T06:12:51;5.8;;;4.1;;
56593;SDS011;42474;51.660;5.824;2022-08-11T06:17:53;7.8;;;4.8;;
56593;SDS011;42474;51.660;5.824;2022-08-11T06:22:56;8.0;;;4.4;;
56593;SDS011;42474;51.660;5.824;2022-08-11T06:27:55;5.7;;;4.1;;
56593;SDS011;42474;51.660;5.824;2022-08-11T06:32:51;5.6;;;4.5;;
56593;SDS011;42474;51.660;5.824;2022-08-11T06:38:00;5.5;;;4.0;;
56593;SDS011;42474;51.660;5.824;2022-08-11T06:42:55;6.1;;;3.7;;
56593;SDS011;42474;51.660;5.824;2022-08-11T06:47:51;6.1;;;3.9;;
56593;SDS011;42474;51.660;5.824;2022-08-11T06:52:51;7.1;;;3.6;;
56593;SDS011;42474;51.660;5.824;2022-08-11T06:57:51;4.6;;;3.2;;
56593;SDS011;42474;51.660;5.824;2022-08-11T07:02:56;5.6;;;3.4;;
56593;SDS011;42474;51.660;5.824;2022-08-11T07:09:32;5.3;;;3.3;;
56593;SDS011;42474;51.660;5.824;2022-08-11T07:13:38;4.4;;;2.8;;
56593;SDS011;42474;51.660;5.824;2022-08-11T07:17:52;5.1;;;2.7;;
56593;SDS011;42474;51.660;5.824;2022-08-11T07:22:53;3.7;;;2.7;;
56593;SDS011;42474;51.660;5.824;2022-08-11T07:27:59;7.4;;;2.3;;
56593;SDS011;42474;51.660;5.824;2022-08-11T07:32:55;3.5;;;2.6;;
56593;SDS011;42474;51.660;5.824;2022-08-11T07:37:55;4.0;;;2.3;;
56593;SDS011;42474;51.660;5.824;2022-08-11T07:42:52;4.5;;;2.4;;
56593;SDS011;42474;51.660;5.824;2022-08-11T07:47:51;4.2;;;2.4;;
56593;SDS011;42474;51.660;5.824;2022-08-11T07:52:51;3.5;;;2.4;;
56593;SDS011;42474;51.660;5.824;2022-08-11T07:57:51;6.9;;;2.3;;
56593;SDS011;42474;51.660;5.824;2022-08-11T08:02:51;6.4;;;2.4;;
56593;SDS011;42474;51.660;5.824;2022-08-11T08:07:51;4.4;;;2.2;;
56593;SDS011;42474;51.660;5.824;2022-08-11T08:12:51;4.1;;;2.4;;
56593;SDS011;42474;51.660;5.824;2022-08-11T08:17:51;5.7;;;2.6;;
56593;SDS011;42474;51.660;5.824;2022-08-11T08:22:52;3.4;;;2.1;;
56593;SDS011;42474;51.660;5.824;2022-08-11T08:27:53;4.2;;;2.4;;
56593;SDS011;42474;51.660;5.824;2022-08-11T08:32:51;4.5;;;2.2;;
56593;SDS011;42474;51.660;5.824;2022-08-11T08:37:51;4.9;;;2.4;;
56593;SDS011;42474;51.660;5.824;2022-08-11T08:42:55;3.8;;;2.1;;
56593;SDS011;42474;51.660;5.824;2022-08-11T08:47:53;4.6;;;2.6;;
56593;SDS011;42474;51.660;5.824;2022-08-11T08:52:57;4.8;;;2.0;;
56593;SDS011;42474;51.660;5.824;2022-08-11T08:57:51;4.7;;;2.3;;
56593;SDS011;42474;51.660;5.824;2022-08-11T09:02:51;4.1;;;2.2;;
56593;SDS011;42474;51.660;5.824;2022-08-11T09:07:51;6.2;;;2.3;;
56593;SDS011;42474;51.660;5.824;2022-08-11T09:12:51;4.2;;;2.3;;
56593;SDS011;42474;51.660;5.824;2022-08-11T09:17:55;3.0;;;2.3;;
56593;SDS011;42474;51.660;5.824;2022-08-11T09:22:57;6.7;;;2.5;;
56593;SDS011;42474;51.660;5.824;2022-08-11T09:27:51;6.4;;;2.2;;
56593;SDS011;42474;51.660;5.824;2022-08-11T09:32:51;3.9;;;2.1;;
56593;SDS011;42474;51.660;5.824;2022-08-11T09:37:51;3.5;;;2.1;;
56593;SDS011;42474;51.660;5.824;2022-08-11T09:42:51;5.4;;;2.4;;
56593;SDS011;42474;51.660;5.824;2022-08-11T09:47:51;3.4;;;2.3;;
56593;SDS011;42474;51.660;5.824;2022-08-11T09:52:51;3.7;;;2.2;;
56593;SDS011;42474;51.660;5.824;2022-08-11T09:57:51;3.4;;;2.2;;
56593;SDS011;42474;51.660;5.824;2022-08-11T10:02:51;3.9;;;2.4;;
56593;SDS011;42474;51.660;5.824;2022-08-11T10:07:51;2.8;;;2.0;;
56593;SDS011;42474;51.660;5.824;2022-08-11T10:12:53;3.3;;;2.0;;
56593;SDS011;42474;51.660;5.824;2022-08-11T10:17:53;4.1;;;2.2;;
56593;SDS011;42474;51.660;5.824;2022-08-11T10:22:51;3.8;;;2.1;;
56593;SDS011;42474;51.660;5.824;2022-08-11T10:27:51;4.7;;;2.4;;
56593;SDS011;42474;51.660;5.824;2022-08-11T10:32:51;4.2;;;2.3;;
56593;SDS011;42474;51.660;5.824;2022-08-11T10:37:52;3.3;;;2.0;;
56593;SDS011;42474;51.660;5.824;2022-08-11T10:42:53;3.0;;;2.0;;
56593;SDS011;42474;51.660;5.824;2022-08-11T10:47:52;4.6;;;2.2;;
56593;SDS011;42474;51.660;5.824;2022-08-11T10:52:51;3.0;;;1.9;;
56593;SDS011;42474;51.660;5.824;2022-08-11T10:57:51;2.6;;;2.0;;
56593;SDS011;42474;51.660;5.824;2022-08-11T11:02:51;3.9;;;2.0;;
56593;SDS011;42474;51.660;5.824;2022-08-11T11:07:54;2.9;;;1.6;;
56593;SDS011;42474;51.660;5.824;2022-08-11T11:12:55;3.9;;;1.8;;
56593;SDS011;42474;51.660;5.824;2022-08-11T11:18:03;6.2;;;2.3;;
56593;SDS011;42474;51.660;5.824;2022-08-11T11:23:00;3.0;;;1.8;;
56593;SDS011;42474;51.660;5.824;2022-08-11T11:28:09;4.7;;;1.8;;
56593;SDS011;42474;51.660;5.824;2022-08-11T11:33:20;2.3;;;1.8;;
56593;SDS011;42474;51.660;5.824;2022-08-11T11:37:54;2.8;;;2.0;;
56593;SDS011;42474;51.660;5.824;2022-08-11T11:42:52;3.0;;;1.9;;
56593;SDS011;42474;51.660;5.824;2022-08-11T11:47:52;2.8;;;1.7;;
56593;SDS011;42474;51.660;5.824;2022-08-11T11:52:51;3.2;;;1.8;;
56593;SDS011;42474;51.660;5.824;2022-08-11T11:57:51;3.3;;;1.9;;
56593;SDS011;42474;51.660;5.824;2022-08-11T12:02:51;3.6;;;2.1;;
56593;SDS011;42474;51.660;5.824;2022-08-11T12:07:51;2.4;;;1.9;;
56593;SDS011;42474;51.660;5.824;2022-08-11T12:12:51;4.7;;;1.8;;
56593;SDS011;42474;51.660;5.824;2022-08-11T12:17:51;4.5;;;2.0;;
56593;SDS011;42474;51.660;5.824;2022-08-11T12:22:51;1.9;;;1.6;;
56593;SDS011;42474;51.660;5.824;2022-08-11T12:27:51;3.0;;;1.7;;
56593;SDS011;42474;51.660;5.824;2022-08-11T12:32:51;4.1;;;1.8;;
56593;SDS011;42474;51.660;5.824;2022-08-11T12:37:53;3.1;;;1.8;;
56593;SDS011;42474;51.660;5.824;2022-08-11T12:42:51;3.3;;;1.7;;
56593;SDS011;42474;51.660;5.824;2022-08-11T12:47:53;2.9;;;1.7;;
56593;SDS011;42474;51.660;5.824;2022-08-11T12:52:52;2.7;;;1.5;;
56593;SDS011;42474;51.660;5.824;2022-08-11T12:57:51;2.6;;;1.5;;
56593;SDS011;42474;51.660;5.824;2022-08-11T13:02:52;2.0;;;1.7;;
56593;SDS011;42474;51.660;5.824;2022-08-11T13:07:51;2.8;;;1.4;;
56593;SDS011;42474;51.660;5.824;2022-08-11T13:12:51;1.9;;;1.3;;
56593;SDS011;42474;51.660;5.824;2022-08-11T13:17:52;1.9;;;1.3;;
56593;SDS011;42474;51.660;5.824;2022-08-11T13:22:52;2.7;;;1.6;;
56593;SDS011;42474;51.660;5.824;2022-08-11T13:27:56;2.9;;;1.8;;
56593;SDS011;42474;51.660;5.824;2022-08-11T13:32:52;2.9;;;1.8;;
56593;SDS011;42474;51.660;5.824;2022-08-11T13:37:52;2.4;;;1.6;;
56593;SDS011;42474;51.660;5.824;2022-08-11T13:42:52;4.1;;;1.5;;
56593;SDS011;42474;51.660;5.824;2022-08-11T13:47:54;2.6;;;1.9;;
56593;SDS011;42474;51.660;5.824;2022-08-11T13:52:52;3.4;;;1.9;;
56593;SDS011;42474;51.660;5.824;2022-08-11T13:57:51;4.3;;;1.6;;
56593;SDS011;42474;51.660;5.824;2022-08-11T14:02:52;2.9;;;1.6;;
56593;SDS011;42474;51.660;5.824;2022-08-11T14:07:52;2.9;;;1.5;;
56593;SDS011;42474;51.660;5.824;2022-08-11T14:12:52;1.9;;;1.4;;
56593;SDS011;42474;51.660;5.824;2022-08-11T14:17:53;2.6;;;1.4;;
56593;SDS011;42474;51.660;5.824;2022-08-11T14:22:51;2.4;;;1.3;;
56593;SDS011;42474;51.660;5.824;2022-08-11T14:27:52;1.7;;;1.4;;
56593;SDS011;42474;51.660;5.824;2022-08-11T14:32:52;2.9;;;1.6;;
56593;SDS011;42474;51.660;5.824;2022-08-11T14:37:51;1.9;;;1.5;;
56593;SDS011;42474;51.660;5.824;2022-08-11T14:42:51;2.6;;;1.5;;
56593;SDS011;42474;51.660;5.824;2022-08-11T14:47:53;5.1;;;1.6;;
56593;SDS011;42474;51.660;5.824;2022-08-11T14:52:53;4.1;;;1.7;;
56593;SDS011;42474;51.660;5.824;2022-08-11T14:57:51;2.6;;;1.4;;
56593;SDS011;42474;51.660;5.824;2022-08-11T15:02:52;2.5;;;1.3;;
56593;SDS011;42474;51.660;5.824;2022-08-11T15:07:52;2.3;;;1.5;;
56593;SDS011;42474;51.660;5.824;2022-08-11T15:12:52;2.0;;;1.3;;
56593;SDS011;42474;51.660;5.824;2022-08-11T15:17:55;4.7;;;1.7;;
56593;SDS011;42474;51.660;5.824;2022-08-11T15:22:51;2.2;;;1.4;;
56593;SDS011;42474;51.660;5.824;2022-08-11T15:27:52;2.4;;;1.4;;
56593;SDS011;42474;51.660;5.824;2022-08-11T15:32:52;2.7;;;1.6;;
56593;SDS011;42474;51.660;5.824;2022-08-11T15:38:00;2.2;;;1.4;;
56593;SDS011;42474;51.660;5.824;2022-08-11T15:42:56;2.0;;;1.3;;
56593;SDS011;42474;51.660;5.824;2022-08-11T15:48:02;2.1;;;1.5;;
56593;SDS011;42474;51.660;5.824;2022-08-11T15:52:52;3.4;;;1.7;;
56593;SDS011;42474;51.660;5.824;2022-08-11T15:57:52;1.7;;;1.3;;
56593;SDS011;42474;51.660;5.824;2022-08-11T16:02:52;3.4;;;1.3;;
56593;SDS011;42474;51.660;5.824;2022-08-11T16:07:53;2.3;;;1.3;;
56593;SDS011;42474;51.660;5.824;2022-08-11T16:12:53;3.5;;;1.4;;
56593;SDS011;42474;51.660;5.824;2022-08-11T16:17:52;5.1;;;1.4;;
56593;SDS011;42474;51.660;5.824;2022-08-11T16:22:53;1.6;;;1.3;;
56593;SDS011;42474;51.660;5.824;2022-08-11T16:27:52;2.9;;;1.4;;
56593;SDS011;42474;51.660;5.824;2022-08-11T16:32:52;1.9;;;1.4;;
56593;SDS011;42474;51.660;5.824;2022-08-11T16:37:52;1.6;;;1.3;;
56593;SDS011;42474;51.660;5.824;2022-08-11T16:42:52;2.9;;;1.4;;
56593;SDS011;42474;51.660;5.824;2022-08-11T16:47:52;3.7;;;1.4;;
56593;SDS011;42474;51.660;5.824;2022-08-11T16:52:52;2.8;;;1.4;;
56593;SDS011;42474;51.660;5.824;2022-08-11T16:57:52;4.3;;;1.8;;
56593;SDS011;42474;51.660;5.824;2022-08-11T17:02:53;3.2;;;1.4;;
56593;SDS011;42474;51.660;5.824;2022-08-11T17:07:52;2.5;;;1.5;;
56593;SDS011;42474;51.660;5.824;2022-08-11T17:12:52;3.5;;;1.6;;
56593;SDS011;42474;51.660;5.824;2022-08-11T17:17:52;1.8;;;1.4;;
56593;SDS011;42474;51.660;5.824;2022-08-11T17:22:52;1.6;;;1.3;;
56593;SDS011;42474;51.660;5.824;2022-08-11T17:27:52;4.8;;;1.4;;
56593;SDS011;42474;51.660;5.824;2022-08-11T17:32:52;2.2;;;1.3;;
56593;SDS011;42474;51.660;5.824;2022-08-11T17:37:52;1.8;;;1.6;;
56593;SDS011;42474;51.660;5.824;2022-08-11T17:42:52;2.0;;;1.5;;
56593;SDS011;42474;51.660;5.824;2022-08-11T17:47:52;3.2;;;1.6;;
56593;SDS011;42474;51.660;5.824;2022-08-11T17:52:52;2.9;;;1.7;;
56593;SDS011;42474;51.660;5.824;2022-08-11T17:57:52;4.3;;;1.6;;
56593;SDS011;42474;51.660;5.824;2022-08-11T18:02:52;4.4;;;1.6;;
56593;SDS011;42474;51.660;5.824;2022-08-11T18:07:52;3.5;;;1.6;;
56593;SDS011;42474;51.660;5.824;2022-08-11T18:12:52;4.0;;;1.6;;
56593;SDS011;42474;51.660;5.824;2022-08-11T18:17:52;4.0;;;1.7;;
56593;SDS011;42474;51.660;5.824;2022-08-11T18:22:52;3.7;;;1.6;;
56593;SDS011;42474;51.660;5.824;2022-08-11T18:27:53;5.0;;;1.9;;
56593;SDS011;42474;51.660;5.824;2022-08-11T18:32:52;6.6;;;1.7;;
56593;SDS011;42474;51.660;5.824;2022-08-11T18:37:52;3.4;;;2.0;;
56593;SDS011;42474;51.660;5.824;2022-08-11T18:42:52;5.5;;;2.1;;
56593;SDS011;42474;51.660;5.824;2022-08-11T18:47:52;5.6;;;2.0;;
56593;SDS011;42474;51.660;5.824;2022-08-11T18:52:52;8.0;;;2.0;;
56593;SDS011;42474;51.660;5.824;2022-08-11T18:57:52;4.6;;;2.0;;
56593;SDS011;42474;51.660;5.824;2022-08-11T19:02:52;6.7;;;2.3;;
56593;SDS011;42474;51.660;5.824;2022-08-11T19:07:52;4.1;;;2.3;;
56593;SDS011;42474;51.660;5.824;2022-08-11T19:12:52;3.9;;;2.3;;
56593;SDS011;42474;51.660;5.824;2022-08-11T19:17:52;8.1;;;2.8;;
56593;SDS011;42474;51.660;5.824;2022-08-11T19:22:52;7.2;;;2.3;;
56593;SDS011;42474;51.660;5.824;2022-08-11T19:27:52;9.4;;;2.9;;
56593;SDS011;42474;51.660;5.824;2022-08-11T19:32:52;8.2;;;2.7;;
56593;SDS011;42474;51.660;5.824;2022-08-11T19:37:52;7.6;;;3.0;;
56593;SDS011;42474;51.660;5.824;2022-08-11T19:42:52;9.5;;;3.4;;
56593;SDS011;42474;51.660;5.824;2022-08-11T19:47:52;7.3;;;3.1;;
56593;SDS011;42474;51.660;5.824;2022-08-11T19:52:52;5.4;;;3.1;;
56593;SDS011;42474;51.660;5.824;2022-08-11T19:57:52;8.0;;;3.0;;
56593;SDS011;42474;51.660;5.824;2022-08-11T20:02:52;8.9;;;3.3;;
56593;SDS011;42474;51.660;5.824;2022-08-11T20:07:52;11.2;;;3.3;;
56593;SDS011;42474;51.660;5.824;2022-08-11T20:12:52;8.4;;;3.4;;
56593;SDS011;42474;51.660;5.824;2022-08-11T20:17:52;10.3;;;3.5;;
56593;SDS011;42474;51.660;5.824;2022-08-11T20:22:52;6.9;;;3.5;;
56593;SDS011;42474;51.660;5.824;2022-08-11T20:27:52;8.4;;;3.5;;
56593;SDS011;42474;51.660;5.824;2022-08-11T20:32:52;8.9;;;3.2;;
56593;SDS011;42474;51.660;5.824;2022-08-11T20:37:52;8.7;;;3.8;;
56593;SDS011;42474;51.660;5.824;2022-08-11T20:42:52;5.6;;;3.7;;
56593;SDS011;42474;51.660;5.824;2022-08-11T20:47:52;8.3;;;4.0;;
56593;SDS011;42474;51.660;5.824;2022-08-11T20:52:52;9.6;;;3.7;;
56593;SDS011;42474;51.660;5.824;2022-08-11T20:57:52;5.6;;;4.0;;
56593;SDS011;42474;51.660;5.824;2022-08-11T21:02:52;6.1;;;4.0;;
56593;SDS011;42474;51.660;5.824;2022-08-11T21:07:52;5.4;;;3.9;;
56593;SDS011;42474;51.660;5.824;2022-08-11T21:12:52;5.6;;;3.9;;
56593;SDS011;42474;51.660;5.824;2022-08-11T21:17:52;9.8;;;4.2;;
56593;SDS011;42474;51.660;5.824;2022-08-11T21:22:58;7.6;;;4.3;;
56593;SDS011;42474;51.660;5.824;2022-08-11T21:27:52;6.5;;;4.6;;
56593;SDS011;42474;51.660;5.824;2022-08-11T21:32:52;11.4;;;5.0;;
56593;SDS011;42474;51.660;5.824;2022-08-11T21:37:52;12.1;;;5.8;;
56593;SDS011;42474;51.660;5.824;2022-08-11T21:42:52;9.8;;;5.6;;
56593;SDS011;42474;51.660;5.824;2022-08-11T21:47:55;9.6;;;5.0;;
56593;SDS011;42474;51.660;5.824;2022-08-11T21:52:52;10.0;;;4.6;;
56593;SDS011;42474;51.660;5.824;2022-08-11T21:57:52;10.9;;;7.6;;
56593;SDS011;42474;51.660;5.824;2022-08-11T22:02:52;11.3;;;7.6;;
56593;SDS011;42474;51.660;5.824;2022-08-11T22:07:52;16.7;;;7.5;;
56593;SDS011;42474;51.660;5.824;2022-08-11T22:12:52;8.8;;;6.5;;
56593;SDS011;42474;51.660;5.824;2022-08-11T22:17:52;11.2;;;6.9;;
56593;SDS011;42474;51.660;5.824;2022-08-11T22:22:52;8.8;;;6.1;;
56593;SDS011;42474;51.660;5.824;2022-08-11T22:27:52;8.0;;;5.7;;
56593;SDS011;42474;51.660;5.824;2022-08-11T22:32:52;5.8;;;4.7;;
56593;SDS011;42474;51.660;5.824;2022-08-11T22:37:54;8.5;;;4.9;;
56593;SDS011;42474;51.660;5.824;2022-08-11T22:42:52;7.3;;;4.1;;
56593;SDS011;42474;51.660;5.824;2022-08-11T22:47:52;5.1;;;3.9;;
56593;SDS011;42474;51.660;5.824;2022-08-11T22:52:52;5.8;;;3.9;;
56593;SDS011;42474;51.660;5.824;2022-08-11T22:57:52;4.7;;;3.6;;
56593;SDS011;42474;51.660;5.824;2022-08-11T23:02:52;5.1;;;3.6;;
56593;SDS011;42474;51.660;5.824;2022-08-11T23:07:52;4.4;;;3.3;;
56593;SDS011;42474;51.660;5.824;2022-08-11T23:12:52;4.0;;;3.3;;
56593;SDS011;42474;51.660;5.824;2022-08-11T23:17:52;5.3;;;3.2;;
56593;SDS011;42474;51.660;5.824;2022-08-11T23:22:52;3.6;;;3.0;;
56593;SDS011;42474;51.660;5.824;2022-08-11T23:27:52;4.6;;;3.6;;
56593;SDS011;42474;51.660;5.824;2022-08-11T23:32:54;4.2;;;3.6;;
56593;SDS011;42474;51.660;5.824;2022-08-11T23:37:52;3.9;;;3.1;;
56593;SDS011;42474;51.660;5.824;2022-08-11T23:42:52;4.5;;;2.8;;
56593;SDS011;42474;51.660;5.824;2022-08-11T23:47:52;4.2;;;2.9;;
56593;SDS011;42474;51.660;5.824;2022-08-11T23:52:52;6.4;;;3.1;;
56593;SDS011;42474;51.660;5.824;2022-08-11T23:57:52;3.7;;;2.9;;
